createdAt,value
2023-03-29T00:03:34.216Z,3.78
2023-03-29T00:06:05.820Z,3.30
2023-03-29T00:08:38.722Z,3.10
2023-03-29T00:11:08.809Z,3.10
2023-03-29T00:13:36.857Z,3.60
2023-03-29T00:16:07.274Z,3.60
2023-03-29T00:18:35.605Z,4.45
2023-03-29T00:21:02.943Z,4.38
2023-03-29T00:23:30.229Z,3.60
2023-03-29T00:25:57.749Z,3.47
2023-03-29T00:28:24.977Z,3.75
2023-03-29T00:30:52.120Z,3.80
2023-03-29T00:33:23.608Z,3.10
2023-03-29T00:35:53.382Z,3.35
2023-03-29T00:38:20.607Z,2.53
2023-03-29T00:40:48.226Z,2.35
2023-03-29T00:43:16.681Z,1.63
2023-03-29T00:45:43.570Z,2.35
2023-03-29T00:48:16.211Z,1.90
2023-03-29T00:50:46.062Z,2.22
2023-03-29T00:53:26.397Z,1.52
2023-03-29T00:55:59.714Z,2.60
2023-03-29T00:58:43.649Z,1.75
2023-03-29T01:01:19.497Z,2.28
2023-03-29T01:04:00.987Z,2.50
2023-03-29T01:06:30.303Z,2.60
2023-03-29T01:09:12.705Z,2.85
2023-03-29T01:12:02.771Z,3.03
2023-03-29T01:14:41.864Z,2.80
2023-03-29T01:17:16.382Z,3.05
2023-03-29T01:19:56.735Z,4.22
2023-03-29T01:22:39.224Z,2.97
2023-03-29T01:25:20.213Z,5.15
2023-03-29T01:27:55.506Z,3.00
2023-03-29T01:30:32.623Z,2.50
2023-03-29T01:33:09.034Z,2.78
2023-03-29T01:35:51.039Z,3.08
2023-03-29T01:38:27.917Z,3.10
2023-03-29T01:40:54.723Z,3.33
2023-03-29T01:46:47.047Z,2.88
2023-03-29T01:49:30.462Z,2.85
2023-03-29T01:52:18.442Z,3.33
2023-03-29T01:55:20.682Z,3.72
2023-03-29T01:57:51.190Z,3.25
2023-03-29T02:00:24.991Z,2.83
2023-03-29T02:05:26.567Z,2.42
2023-03-29T02:08:00.634Z,2.80
2023-03-29T02:10:28.210Z,3.40
2023-03-29T02:13:01.189Z,2.88
2023-03-29T02:15:28.202Z,2.97
2023-03-29T02:17:58.543Z,3.28
2023-03-29T02:20:47.460Z,2.67
2023-03-29T02:23:34.337Z,1.88
2023-03-29T02:26:03.409Z,3.03
2023-03-29T02:28:31.824Z,3.42
2023-03-29T02:31:24.202Z,2.75
2023-03-29T02:34:16.597Z,2.28
2023-03-29T02:36:48.021Z,1.95
2023-03-29T02:39:18.370Z,2.08
2023-03-29T02:41:49.551Z,2.35
2023-03-29T02:44:23.589Z,1.83
2023-03-29T02:46:53.646Z,2.42
2023-03-29T02:49:21.253Z,2.78
2023-03-29T02:51:59.032Z,2.17
2023-03-29T02:54:31.881Z,2.13
2023-03-29T02:57:03.710Z,1.77
2023-03-29T02:59:31.446Z,2.72
2023-03-29T03:01:59.106Z,2.30
2023-03-29T03:04:29.524Z,2.85
2023-03-29T03:06:56.995Z,2.58
2023-03-29T03:09:24.389Z,2.72
2023-03-29T03:11:53.198Z,1.77
2023-03-29T03:14:25.208Z,2.03
2023-03-29T03:16:55.292Z,2.65
2023-03-29T03:19:22.172Z,1.70
2023-03-29T03:21:51.127Z,2.40
2023-03-29T03:24:18.632Z,2.92
2023-03-29T03:26:46.834Z,2.83
2023-03-29T03:29:15.947Z,2.22
2023-03-29T03:31:55.817Z,1.75
2023-03-29T03:34:44.967Z,3.13
2023-03-29T03:37:12.304Z,2.40
2023-03-29T03:39:42.527Z,2.95
2023-03-29T03:42:10.754Z,1.80
2023-03-29T03:44:42.671Z,1.70
2023-03-29T03:47:29.579Z,1.80
2023-03-29T03:50:03.947Z,1.42
2023-03-29T03:52:33.130Z,2.47
2023-03-29T03:55:00.039Z,2.83
2023-03-29T03:57:41.358Z,2.65
2023-03-29T04:00:19.470Z,1.73
2023-03-29T04:02:54.475Z,1.70
2023-03-29T04:05:22.076Z,2.08
2023-03-29T04:07:49.969Z,2.88
2023-03-29T04:10:40.528Z,2.25
2023-03-29T04:13:13.696Z,3.42
2023-03-29T04:16:01.889Z,2.70
2023-03-29T04:18:30.402Z,2.83
2023-03-29T04:20:59.662Z,2.47
2023-03-29T04:23:29.142Z,2.65
2023-03-29T04:25:56.999Z,2.95
2023-03-29T04:28:52.533Z,2.63
2023-03-29T04:31:24.423Z,2.53
2023-03-29T04:34:04.888Z,2.50
2023-03-29T04:36:32.859Z,2.60
2023-03-29T04:39:01.792Z,2.38
2023-03-29T04:41:30.256Z,2.53
2023-03-29T04:44:08.443Z,3.45
2023-03-29T04:47:08.711Z,2.75
2023-03-29T04:49:51.791Z,2.42
2023-03-29T04:53:06.272Z,3.08
2023-03-29T04:55:33.657Z,2.45
2023-03-29T04:58:02.841Z,3.05
2023-03-29T05:00:39.557Z,2.60
2023-03-29T05:03:13.715Z,2.55
2023-03-29T05:05:52.035Z,2.70
2023-03-29T05:08:20.770Z,2.70
2023-03-29T05:11:11.037Z,3.13
2023-03-29T05:13:39.443Z,2.25
2023-03-29T05:16:08.217Z,2.55
2023-03-29T05:18:36.366Z,2.50
2023-03-29T05:21:05.000Z,2.95
2023-03-29T05:23:34.592Z,3.80
2023-03-29T05:26:23.963Z,3.42
2023-03-29T05:28:54.138Z,2.90
2023-03-29T05:31:22.857Z,3.50
2023-03-29T05:33:54.192Z,2.28
2023-03-29T05:36:23.436Z,2.47
2023-03-29T05:38:54.112Z,2.55
2023-03-29T05:41:29.040Z,3.58
2023-03-29T05:43:59.326Z,1.65
2023-03-29T05:46:29.963Z,3.03
2023-03-29T05:49:03.005Z,2.40
2023-03-29T05:51:57.303Z,1.80
2023-03-29T05:54:27.758Z,2.72
2023-03-29T05:56:55.068Z,2.47
2023-03-29T05:59:25.248Z,3.03
2023-03-29T06:01:54.977Z,3.08
2023-03-29T06:04:22.983Z,3.42
2023-03-29T06:07:08.009Z,3.17
2023-03-29T06:09:35.795Z,1.95
2023-03-29T06:12:05.486Z,2.42
2023-03-29T06:15:04.933Z,2.63
2023-03-29T06:17:52.753Z,2.47
2023-03-29T06:20:21.892Z,3.15
2023-03-29T06:22:55.274Z,3.35
2023-03-29T06:25:25.097Z,3.92
2023-03-29T06:27:53.162Z,2.75
2023-03-29T06:30:21.302Z,3.40
2023-03-29T06:35:48.778Z,2.78
2023-03-29T06:38:20.953Z,2.17
2023-03-29T06:41:02.761Z,3.13
2023-03-29T06:43:42.018Z,2.20
2023-03-29T06:46:15.137Z,3.10
2023-03-29T06:48:55.069Z,1.42
2023-03-29T06:51:27.473Z,1.65
2023-03-29T06:53:54.513Z,2.30
2023-03-29T06:56:22.654Z,3.03
2023-03-29T06:59:00.864Z,3.20
2023-03-29T07:01:45.856Z,2.17
2023-03-29T07:04:25.846Z,2.58
2023-03-29T07:07:22.502Z,1.92
2023-03-29T07:10:18.594Z,2.05
2023-03-29T07:13:09.681Z,2.45
2023-03-29T07:15:37.364Z,2.72
2023-03-29T07:18:17.228Z,2.55
2023-03-29T07:20:44.867Z,2.92
2023-03-29T07:23:12.340Z,3.22
2023-03-29T07:25:41.200Z,2.70
2023-03-29T07:28:09.260Z,3.42
2023-03-29T07:30:37.391Z,1.98
2023-03-29T07:33:17.280Z,2.30
2023-03-29T07:35:57.646Z,2.25
2023-03-29T07:38:26.186Z,2.80
2023-03-29T07:41:00.479Z,2.30
2023-03-29T07:43:37.206Z,2.53
2023-03-29T07:46:07.784Z,2.65
2023-03-29T07:48:37.316Z,2.45
2023-03-29T07:51:10.491Z,1.80
2023-03-29T07:53:56.416Z,1.77
2023-03-29T07:56:59.086Z,2.63
2023-03-29T07:59:49.617Z,1.90
2023-03-29T08:02:28.496Z,2.35
2023-03-29T08:05:00.350Z,2.75
2023-03-29T08:07:27.991Z,2.15
2023-03-29T08:10:04.915Z,2.08
2023-03-29T08:12:50.821Z,2.40
2023-03-29T08:15:20.927Z,2.35
2023-03-29T08:17:49.247Z,2.40
2023-03-29T08:20:17.943Z,1.60
2023-03-29T08:22:50.212Z,1.98
2023-03-29T08:25:28.290Z,2.80
2023-03-29T08:27:55.819Z,3.17
2023-03-29T08:30:51.328Z,2.28
2023-03-29T08:33:18.655Z,2.10
2023-03-29T08:35:52.262Z,2.17
2023-03-29T08:38:29.172Z,2.38
2023-03-29T08:40:57.348Z,3.22
2023-03-29T08:43:49.620Z,2.47
2023-03-29T08:46:35.720Z,2.28
2023-03-29T08:49:23.036Z,2.72
2023-03-29T08:52:06.775Z,2.05
2023-03-29T08:54:43.998Z,2.50
2023-03-29T08:57:26.071Z,2.22
2023-03-29T09:00:02.347Z,1.55
2023-03-29T09:02:33.659Z,2.65
2023-03-29T09:05:15.187Z,1.65
2023-03-29T09:07:48.026Z,2.10
2023-03-29T09:10:20.872Z,2.25
2023-03-29T09:13:01.841Z,1.90
2023-03-29T09:15:52.893Z,2.42
2023-03-29T09:18:59.823Z,1.40
2023-03-29T09:21:50.831Z,2.83
2023-03-29T09:24:37.094Z,1.67
2023-03-29T09:27:13.510Z,1.98
2023-03-29T09:30:06.446Z,1.90
2023-03-29T09:33:08.996Z,1.83
2023-03-29T09:36:10.576Z,2.22
2023-03-29T09:38:43.373Z,2.50
2023-03-29T09:43:52.284Z,2.10
2023-03-29T09:46:37.874Z,1.83
2023-03-29T09:49:10.857Z,2.42
2023-03-29T09:51:40.511Z,1.75
2023-03-29T09:54:11.429Z,1.77
2023-03-29T09:57:05.470Z,2.00
2023-03-29T09:59:32.535Z,2.20
2023-03-29T10:02:09.328Z,2.05
2023-03-29T10:04:39.137Z,1.73
2023-03-29T10:07:09.094Z,2.15
2023-03-29T10:09:36.465Z,1.80
2023-03-29T10:12:17.105Z,2.03
2023-03-29T10:14:53.639Z,1.75
2023-03-29T10:17:33.404Z,1.88
2023-03-29T10:20:04.553Z,2.33
2023-03-29T10:22:38.224Z,2.33
2023-03-29T10:25:13.480Z,1.95
2023-03-29T10:27:44.795Z,1.90
2023-03-29T10:30:23.349Z,1.75
2023-03-29T10:33:01.640Z,2.03
2023-03-29T10:35:41.778Z,2.03
2023-03-29T10:38:16.603Z,2.08
2023-03-29T10:40:50.989Z,2.20
2023-03-29T10:43:18.478Z,1.90
2023-03-29T10:45:52.531Z,1.92
2023-03-29T10:48:31.057Z,1.42
2023-03-29T10:51:34.802Z,1.98
2023-03-29T10:54:07.135Z,1.75
2023-03-29T10:56:43.355Z,1.80
2023-03-29T10:59:31.408Z,1.30
2023-03-29T11:02:33.299Z,1.95
2023-03-29T11:05:10.992Z,2.20
2023-03-29T11:08:07.071Z,1.98
2023-03-29T11:11:32.390Z,1.67
2023-03-29T11:14:24.951Z,1.70
2023-03-29T11:17:19.226Z,1.70
2023-03-29T11:20:05.783Z,1.65
2023-03-29T11:22:56.713Z,1.52
2023-03-29T11:25:38.330Z,1.80
2023-03-29T11:28:31.645Z,2.15
2023-03-29T11:31:13.981Z,3.75
2023-03-29T11:34:01.986Z,1.85
2023-03-29T11:36:35.539Z,2.53
2023-03-29T11:39:09.660Z,1.98
2023-03-29T11:41:43.506Z,1.90
2023-03-29T11:44:29.401Z,2.33
2023-03-29T11:47:18.271Z,1.92
2023-03-29T11:49:53.131Z,2.08
2023-03-29T11:52:33.986Z,1.83
2023-03-29T11:55:19.550Z,1.33
2023-03-29T11:58:01.925Z,2.53
2023-03-29T12:00:50.104Z,2.15
2023-03-29T12:03:28.939Z,2.22
2023-03-29T12:06:05.911Z,2.13
2023-03-29T12:09:05.803Z,2.25
2023-03-29T12:12:01.331Z,1.80
2023-03-29T12:14:58.466Z,2.38
2023-03-29T12:17:57.962Z,1.90
2023-03-29T12:20:53.489Z,2.22
2023-03-29T12:23:21.593Z,1.98
2023-03-29T12:26:06.013Z,2.20
2023-03-29T12:28:55.471Z,2.55
2023-03-29T12:31:33.064Z,2.30
2023-03-29T12:34:20.196Z,2.15
2023-03-29T12:37:20.952Z,2.40
2023-03-29T12:40:12.720Z,2.10
2023-03-29T12:43:26.248Z,2.40
2023-03-29T12:46:32.241Z,2.08
2023-03-29T12:49:12.293Z,1.98
2023-03-29T12:51:42.046Z,2.35
2023-03-29T12:54:25.573Z,2.60
2023-03-29T12:56:58.921Z,1.48
2023-03-29T12:59:47.733Z,2.50
2023-03-29T13:02:15.038Z,2.55
2023-03-29T13:04:54.970Z,2.60
2023-03-29T13:07:22.485Z,2.25
2023-03-29T13:10:03.647Z,2.55
2023-03-29T13:12:33.577Z,2.20
2023-03-29T13:15:27.872Z,2.22
2023-03-29T13:18:26.132Z,2.50
2023-03-29T13:21:02.528Z,2.00
2023-03-29T13:24:00.200Z,1.83
2023-03-29T13:26:42.998Z,2.13
2023-03-29T13:29:24.250Z,2.40
2023-03-29T13:31:57.904Z,2.25
2023-03-29T13:34:36.416Z,2.22
2023-03-29T13:37:32.470Z,1.92
2023-03-29T13:40:03.525Z,2.28
2023-03-29T13:42:34.342Z,2.15
2023-03-29T13:45:28.411Z,2.03
2023-03-29T13:48:22.598Z,2.85
2023-03-29T13:50:57.240Z,2.53
2023-03-29T13:53:46.105Z,2.65
2023-03-29T13:56:20.056Z,2.33
2023-03-29T13:58:49.962Z,2.63
2023-03-29T14:01:36.351Z,3.13
2023-03-29T14:04:17.553Z,2.42
2023-03-29T14:06:53.240Z,2.58
2023-03-29T14:09:52.955Z,3.08
2023-03-29T14:12:21.943Z,2.05
2023-03-29T14:14:59.614Z,2.53
2023-03-29T14:17:27.281Z,2.35
2023-03-29T14:19:59.046Z,2.55
2023-03-29T14:22:31.264Z,2.70
2023-03-29T14:25:02.862Z,2.67
2023-03-29T14:27:32.674Z,2.80
2023-03-29T14:30:01.009Z,2.47
2023-03-29T14:32:31.196Z,2.63
2023-03-29T14:34:59.514Z,2.83
2023-03-29T14:37:29.205Z,2.65
2023-03-29T14:40:01.670Z,3.30
2023-03-29T14:45:09.313Z,3.25
2023-03-29T14:47:43.568Z,2.70
2023-03-29T14:50:27.676Z,2.55
2023-03-29T14:52:58.310Z,2.78
2023-03-29T14:55:27.368Z,3.05
2023-03-29T14:57:56.176Z,2.50
2023-03-29T15:00:27.122Z,2.92
2023-03-29T15:02:58.386Z,2.70
2023-03-29T15:05:39.570Z,2.80
2023-03-29T15:08:10.782Z,2.00
2023-03-29T15:10:44.727Z,2.63
2023-03-29T15:13:24.872Z,2.95
2023-03-29T15:15:56.402Z,2.60
2023-03-29T15:18:30.653Z,2.92
2023-03-29T15:21:00.399Z,2.67
2023-03-29T15:24:03.630Z,2.80
2023-03-29T15:26:50.228Z,3.22
2023-03-29T15:29:27.442Z,2.78
2023-03-29T15:32:07.154Z,2.40
2023-03-29T15:34:36.027Z,2.17
2023-03-29T15:37:04.544Z,3.15
2023-03-29T15:39:32.362Z,2.55
2023-03-29T15:42:00.207Z,3.17
2023-03-29T15:44:45.711Z,3.45
2023-03-29T15:47:35.299Z,2.95
2023-03-29T15:50:02.794Z,3.05
2023-03-29T15:52:32.101Z,2.88
2023-03-29T15:55:05.010Z,3.00
2023-03-29T15:57:41.236Z,3.45
2023-03-29T16:00:13.936Z,2.92
2023-03-29T16:05:13.109Z,2.83
2023-03-29T16:07:42.256Z,2.97
2023-03-29T16:10:34.945Z,3.10
2023-03-29T16:13:02.606Z,2.97
2023-03-29T16:15:33.768Z,3.38
2023-03-29T16:18:01.514Z,3.05
2023-03-29T16:20:29.385Z,3.08
2023-03-29T16:22:58.570Z,3.13
2023-03-29T16:25:29.112Z,3.53
2023-03-29T16:27:57.070Z,3.65
2023-03-29T16:30:25.758Z,3.85
2023-03-29T16:32:56.929Z,3.13
2023-03-29T16:35:30.879Z,3.35
2023-03-29T16:38:08.152Z,3.40
2023-03-29T16:40:53.679Z,3.75
2023-03-29T16:43:21.874Z,3.55
2023-03-29T16:45:48.852Z,4.10
2023-03-29T16:48:19.281Z,3.83
2023-03-29T16:51:00.449Z,4.43
2023-03-29T16:53:33.030Z,3.90
2023-03-29T16:56:04.226Z,3.95
2023-03-29T16:58:52.254Z,3.60
2023-03-29T17:01:50.856Z,3.33
2023-03-29T17:04:22.288Z,4.45
2023-03-29T17:06:50.041Z,3.90
2023-03-29T17:09:18.028Z,4.95
2023-03-29T17:11:53.421Z,3.78
2023-03-29T17:14:21.219Z,4.78
2023-03-29T17:16:50.085Z,3.95
2023-03-29T17:19:21.565Z,3.83
2023-03-29T17:21:50.988Z,4.25
2023-03-29T17:24:18.481Z,3.92
2023-03-29T17:27:00.126Z,4.43
2023-03-29T17:29:37.791Z,4.30
2023-03-29T17:32:09.002Z,3.90
2023-03-29T17:34:37.097Z,4.78
2023-03-29T17:37:04.685Z,4.63
2023-03-29T17:39:35.864Z,4.40
2023-03-29T17:42:26.370Z,4.57
2023-03-29T17:44:54.000Z,4.10
2023-03-29T17:47:21.450Z,4.70
2023-03-29T17:49:48.295Z,4.93
2023-03-29T17:52:15.488Z,3.78
2023-03-29T17:54:42.384Z,4.47
2023-03-29T17:57:09.830Z,4.07
2023-03-29T17:59:39.235Z,5.22
2023-03-29T18:02:38.409Z,4.22
2023-03-29T18:06:05.076Z,4.28
2023-03-29T18:08:46.524Z,4.55
2023-03-29T18:11:23.148Z,4.35
2023-03-29T18:13:56.491Z,4.57
2023-03-29T18:16:28.882Z,4.53
2023-03-29T18:19:04.787Z,4.95
2023-03-29T18:21:37.475Z,4.85
2023-03-29T18:24:14.211Z,3.85
2023-03-29T18:27:00.222Z,3.88
2023-03-29T18:29:33.810Z,3.42
2023-03-29T18:32:03.827Z,3.70
2023-03-29T18:34:31.480Z,3.78
2023-03-29T18:37:16.327Z,3.65
2023-03-29T18:40:11.437Z,3.92
2023-03-29T18:42:40.111Z,3.60
2023-03-29T18:45:19.171Z,3.97
2023-03-29T18:47:54.723Z,3.75
2023-03-29T18:50:34.414Z,3.35
2023-03-29T18:53:11.549Z,3.97
2023-03-29T18:55:45.655Z,3.80
2023-03-29T18:58:48.368Z,2.72
2023-03-29T19:01:20.208Z,4.10
2023-03-29T19:03:49.411Z,3.00
2023-03-29T19:06:19.765Z,2.70
2023-03-29T19:08:55.954Z,3.83
2023-03-29T19:11:33.518Z,3.90
2023-03-29T19:14:06.483Z,4.18
2023-03-29T19:16:37.520Z,4.43
2023-03-29T19:19:14.812Z,5.63
2023-03-29T19:21:43.527Z,7.25
2023-03-29T19:24:34.447Z,5.22
2023-03-29T19:27:22.385Z,5.43
2023-03-29T19:30:01.136Z,4.80
2023-03-29T19:32:40.015Z,5.57
2023-03-29T19:35:10.463Z,6.85
2023-03-29T19:37:37.687Z,6.25
2023-03-29T19:40:12.479Z,6.13
2023-03-29T19:42:46.411Z,6.45
2023-03-29T19:45:15.724Z,5.80
2023-03-29T19:47:47.637Z,5.20
2023-03-29T19:50:14.822Z,5.38
2023-03-29T19:53:01.419Z,5.25
2023-03-29T19:55:29.718Z,4.45
2023-03-29T19:57:58.947Z,4.95
2023-03-29T20:00:27.847Z,6.15
2023-03-29T20:03:10.010Z,5.65
2023-03-29T20:05:39.071Z,4.07
2023-03-29T20:08:14.238Z,3.78
2023-03-29T20:10:41.725Z,4.35
2023-03-29T20:13:11.946Z,4.20
2023-03-29T20:15:39.044Z,4.10
2023-03-29T20:18:06.284Z,4.45
2023-03-29T20:20:35.907Z,3.80
2023-03-29T20:23:05.398Z,4.47
2023-03-29T20:25:35.716Z,5.07
2023-03-29T20:28:03.976Z,5.40
2023-03-29T20:30:31.446Z,6.03
2023-03-29T20:32:58.358Z,5.47
2023-03-29T20:35:25.794Z,4.50
2023-03-29T20:37:52.995Z,4.97
2023-03-29T20:40:20.902Z,4.75
2023-03-29T20:42:49.285Z,4.88
2023-03-29T20:45:20.158Z,4.65
2023-03-29T20:47:56.503Z,4.28
2023-03-29T20:50:28.466Z,4.47
2023-03-29T20:52:57.489Z,4.45
2023-03-29T20:55:24.672Z,4.43
2023-03-29T20:58:00.097Z,4.78
2023-03-29T21:00:29.081Z,4.05
2023-03-29T21:02:58.866Z,4.75
2023-03-29T21:05:32.142Z,4.35
2023-03-29T21:08:00.632Z,4.60
2023-03-29T21:10:28.391Z,4.20
2023-03-29T21:13:00.443Z,4.47
2023-03-29T21:15:29.829Z,3.80
2023-03-29T21:17:57.215Z,4.15
2023-03-29T21:20:24.693Z,4.63
2023-03-29T21:22:52.995Z,4.50
2023-03-29T21:25:19.966Z,4.35
2023-03-29T21:27:47.149Z,3.55
2023-03-29T21:30:16.624Z,3.58
2023-03-29T21:32:43.637Z,4.97
2023-03-29T21:35:11.436Z,3.00
2023-03-29T21:37:38.639Z,4.00
2023-03-29T21:40:08.717Z,4.60
2023-03-29T21:42:36.706Z,4.60
2023-03-29T21:45:04.769Z,4.20
2023-03-29T21:47:35.381Z,4.00
2023-03-29T21:50:02.433Z,5.03
2023-03-29T21:52:29.110Z,4.18
2023-03-29T21:54:56.372Z,3.97
2023-03-29T21:57:25.325Z,4.05
2023-03-29T21:59:52.800Z,3.55
2023-03-29T22:02:19.951Z,3.60
2023-03-29T22:04:46.782Z,2.92
2023-03-29T22:07:14.043Z,4.32
2023-03-29T22:09:41.476Z,3.97
2023-03-29T22:12:10.647Z,3.40
2023-03-29T22:14:37.609Z,3.80
2023-03-29T22:17:08.589Z,2.97
2023-03-29T22:19:39.974Z,3.42
2023-03-29T22:22:14.000Z,2.65
2023-03-29T22:24:42.202Z,3.60
2023-03-29T22:27:10.658Z,3.30
2023-03-29T22:29:37.577Z,3.53
2023-03-29T22:32:05.116Z,3.55
2023-03-29T22:34:32.199Z,2.67
2023-03-29T22:36:59.200Z,3.37
2023-03-29T22:39:26.147Z,3.75
2023-03-29T22:41:53.821Z,3.35
2023-03-29T22:44:21.148Z,4.28
2023-03-29T22:46:48.064Z,3.20
2023-03-29T22:49:14.882Z,3.42
2023-03-29T22:51:42.003Z,3.60
2023-03-29T22:54:08.974Z,3.30
2023-03-29T22:56:35.982Z,2.90
2023-03-29T22:59:02.948Z,4.30
2023-03-29T23:01:33.589Z,4.28
2023-03-29T23:04:14.859Z,2.90
2023-03-29T23:06:42.217Z,3.13
2023-03-29T23:09:09.714Z,2.97
2023-03-29T23:11:37.340Z,3.17
2023-03-29T23:14:04.383Z,3.03
2023-03-29T23:16:33.698Z,3.45
2023-03-29T23:19:03.066Z,2.97
2023-03-29T23:21:31.512Z,3.72
2023-03-29T23:24:19.227Z,2.60
2023-03-29T23:26:49.290Z,3.58
2023-03-29T23:29:16.055Z,3.60
2023-03-29T23:31:44.871Z,2.53
2023-03-29T23:34:13.575Z,3.25
2023-03-29T23:36:46.811Z,2.70
2023-03-29T23:39:14.527Z,3.28
2023-03-29T23:41:44.278Z,2.92
2023-03-29T23:44:12.196Z,3.25
2023-03-29T23:46:42.533Z,3.50
2023-03-29T23:49:10.724Z,3.17
2023-03-29T23:51:42.279Z,3.45
2023-03-29T23:54:12.825Z,3.38
2023-03-29T23:56:40.270Z,2.88
2023-03-29T23:59:07.759Z,4.20
